createdAt,value
2022-10-11T00:00:59.159Z,23.80
2022-10-11T00:03:41.248Z,27.90
2022-10-11T00:06:14.896Z,23.50
2022-10-11T00:08:48.559Z,24.50
2022-10-11T00:11:22.383Z,24.50
2022-10-11T00:13:56.037Z,22.50
2022-10-11T00:16:29.980Z,26.30
2022-10-11T00:19:03.907Z,21.20
2022-10-11T00:21:37.835Z,22.60
2022-10-11T00:24:16.102Z,21.90
2022-10-11T00:26:49.826Z,23.20
2022-10-11T00:29:23.369Z,26.00
2022-10-11T00:31:57.028Z,20.00
2022-10-11T00:34:30.560Z,24.60
2022-10-11T00:37:04.402Z,29.50
2022-10-11T00:39:39.459Z,19.70
2022-10-11T00:42:21.478Z,21.30
2022-10-11T00:45:34.470Z,16.20
2022-10-11T00:48:18.493Z,17.20
2022-10-11T00:50:56.455Z,18.90
2022-10-11T00:53:33.984Z,17.10
2022-10-11T00:56:17.439Z,18.90
2022-10-11T00:58:55.446Z,15.00
2022-10-11T01:01:30.592Z,15.70
2022-10-11T01:04:07.490Z,14.30
2022-10-11T01:06:43.478Z,13.30
2022-10-11T01:09:19.443Z,12.60
2022-10-11T01:12:00.140Z,14.10
2022-10-11T01:15:06.465Z,14.70
2022-10-11T01:17:58.930Z,20.60
2022-10-11T01:20:53.475Z,14.50
2022-10-11T01:24:08.731Z,16.20
2022-10-11T01:27:32.448Z,15.70
2022-10-11T01:30:25.463Z,15.10
2022-10-11T01:33:16.451Z,15.60
2022-10-11T01:36:02.985Z,14.00
2022-10-11T01:47:05.321Z,17.00
2022-10-11T01:49:39.124Z,16.80
2022-10-11T01:52:13.940Z,18.00
2022-10-11T01:55:14.762Z,16.10
2022-10-11T01:58:14.646Z,17.20
2022-10-11T02:01:00.158Z,14.00
2022-10-11T02:03:46.674Z,14.80
2022-10-11T02:06:29.247Z,10.90
2022-10-11T02:09:13.636Z,11.60
2022-10-11T02:11:47.313Z,13.40
2022-10-11T02:14:25.576Z,12.00
2022-10-11T02:17:07.631Z,15.60
2022-10-11T02:19:45.481Z,14.30
2022-10-11T02:22:24.795Z,13.70
2022-10-11T02:25:03.206Z,11.60
2022-10-11T02:27:41.827Z,15.50
2022-10-11T02:30:17.703Z,14.60
2022-10-11T02:32:53.916Z,16.40
2022-10-11T02:35:34.780Z,18.50
2022-10-11T02:38:18.049Z,15.90
2022-10-11T02:41:00.001Z,17.10
2022-10-11T02:43:41.640Z,21.90
2022-10-11T02:46:17.807Z,17.40
2022-10-11T02:48:52.634Z,17.60
2022-10-11T02:51:27.215Z,19.80
2022-10-11T02:54:01.400Z,16.30
2022-10-11T02:56:35.045Z,18.50
2022-10-11T02:59:08.593Z,18.50
2022-10-11T03:01:42.245Z,21.30
2022-10-11T03:04:16.043Z,18.80
2022-10-11T03:06:49.713Z,17.40
2022-10-11T03:09:23.268Z,18.80
2022-10-11T03:11:56.856Z,17.70
2022-10-11T03:14:31.100Z,15.10
2022-10-11T03:17:30.992Z,14.70
2022-10-11T03:19:59.271Z,15.80
2022-10-11T03:22:32.898Z,15.70
2022-10-11T03:25:07.017Z,16.10
2022-10-11T03:27:40.766Z,16.90
2022-10-11T03:30:18.398Z,14.60
2022-10-11T03:32:52.669Z,16.80
2022-10-11T03:35:26.363Z,16.10
2022-10-11T03:38:00.242Z,19.60
2022-10-11T03:40:33.813Z,14.90
2022-10-11T03:43:07.455Z,14.60
2022-10-11T03:45:42.838Z,12.00
2022-10-11T03:48:16.853Z,14.90
2022-10-11T03:50:51.195Z,15.80
2022-10-11T03:53:24.859Z,15.30
2022-10-11T03:55:58.927Z,16.60
2022-10-11T03:58:32.457Z,14.00
2022-10-11T04:01:06.312Z,16.60
2022-10-11T04:03:40.461Z,15.20
2022-10-11T04:06:14.464Z,18.40
2022-10-11T04:08:48.974Z,15.00
2022-10-11T04:11:22.945Z,14.20
2022-10-11T04:13:57.017Z,18.00
2022-10-11T04:16:30.690Z,17.00
2022-10-11T04:19:06.388Z,17.90
2022-10-11T04:21:40.213Z,18.60
2022-10-11T04:24:14.633Z,17.60
2022-10-11T04:26:48.263Z,15.70
2022-10-11T04:29:21.865Z,14.20
2022-10-11T04:31:55.554Z,14.30
2022-10-11T04:34:29.293Z,17.90
2022-10-11T04:37:03.073Z,13.70
2022-10-11T04:39:37.262Z,15.70
2022-10-11T04:42:11.206Z,13.90
2022-10-11T04:44:44.949Z,14.50
2022-10-11T04:47:19.107Z,12.30
2022-10-11T04:49:52.915Z,12.20
2022-10-11T04:52:26.548Z,14.20
2022-10-11T04:55:00.256Z,12.30
2022-10-11T04:57:33.980Z,14.90
2022-10-11T05:00:10.372Z,14.40
2022-10-11T05:02:44.403Z,14.40
2022-10-11T05:05:18.965Z,12.50
2022-10-11T05:07:52.738Z,17.10
2022-10-11T05:10:26.336Z,14.80
2022-10-11T05:13:00.164Z,14.30
2022-10-11T05:15:33.984Z,12.70
2022-10-11T05:18:07.802Z,15.40
2022-10-11T05:20:42.180Z,15.70
2022-10-11T05:23:16.259Z,13.10
2022-10-11T05:25:50.003Z,18.30
2022-10-11T05:28:23.659Z,13.50
2022-10-11T05:30:57.660Z,14.20
2022-10-11T05:33:31.529Z,13.30
2022-10-11T05:36:06.255Z,14.20
2022-10-11T05:38:41.486Z,13.40
2022-10-11T05:41:18.043Z,12.10
2022-10-11T05:43:51.894Z,13.70
2022-10-11T05:46:25.949Z,21.20
2022-10-11T05:48:59.661Z,29.80
2022-10-11T05:51:33.473Z,23.00
2022-10-11T05:54:07.641Z,22.00
2022-10-11T05:56:41.656Z,16.00
2022-10-11T05:59:15.582Z,14.50
2022-10-11T06:01:50.274Z,19.20
2022-10-11T06:04:23.872Z,14.90
2022-10-11T06:06:57.921Z,16.30
2022-10-11T06:09:31.796Z,14.00
2022-10-11T06:12:06.319Z,13.70
2022-10-11T06:14:40.386Z,11.20
2022-10-11T06:17:14.042Z,13.00
2022-10-11T06:19:47.836Z,13.60
2022-10-11T06:22:22.135Z,12.10
2022-10-11T06:24:56.335Z,11.70
2022-10-11T06:27:30.191Z,9.20
2022-10-11T06:30:08.731Z,14.50
2022-10-11T06:32:48.779Z,13.20
2022-10-11T06:35:23.066Z,11.30
2022-10-11T06:37:57.186Z,9.70
2022-10-11T06:40:32.697Z,9.80
2022-10-11T06:43:06.636Z,11.90
2022-10-11T06:45:40.730Z,11.20
2022-10-11T06:48:15.123Z,12.20
2022-10-11T06:50:59.497Z,9.60
2022-10-11T06:53:34.077Z,10.40
2022-10-11T06:56:11.471Z,8.70
2022-10-11T06:58:45.826Z,12.10
2022-10-11T07:01:23.577Z,9.40
2022-10-11T07:04:00.953Z,10.10
2022-10-11T07:06:38.039Z,7.70
2022-10-11T07:09:12.660Z,9.80
2022-10-11T07:11:48.627Z,8.00
2022-10-11T07:14:22.830Z,8.80
2022-10-11T07:16:57.398Z,10.10
2022-10-11T07:19:34.843Z,9.10
2022-10-11T07:22:09.183Z,10.30
2022-10-11T07:24:43.849Z,9.40
2022-10-11T07:27:18.266Z,9.60
2022-10-11T07:29:52.124Z,7.60
2022-10-11T07:32:25.953Z,9.50
2022-10-11T07:35:00.109Z,8.10
2022-10-11T07:37:35.297Z,8.80
2022-10-11T07:40:12.733Z,8.70
2022-10-11T07:42:46.643Z,6.00
2022-10-11T07:45:20.657Z,9.20
2022-10-11T07:47:56.347Z,8.20
2022-10-11T07:50:31.521Z,7.80
2022-10-11T07:53:05.726Z,7.80
2022-10-11T07:55:42.470Z,11.00
2022-10-11T07:58:17.772Z,9.70
2022-10-11T08:00:57.142Z,7.50
2022-10-11T08:03:31.979Z,8.20
2022-10-11T08:06:09.801Z,6.20
2022-10-11T08:08:44.589Z,7.40
2022-10-11T08:11:27.411Z,7.60
2022-10-11T08:14:02.546Z,5.40
2022-10-11T08:16:36.490Z,8.90
2022-10-11T08:19:11.161Z,8.50
2022-10-11T08:21:45.472Z,7.50
2022-10-11T08:24:21.100Z,5.40
2022-10-11T08:26:56.506Z,5.90
2022-10-11T08:29:30.642Z,6.30
2022-10-11T08:32:06.833Z,5.90
2022-10-11T08:34:40.989Z,6.60
2022-10-11T08:37:15.205Z,6.90
2022-10-11T08:39:49.171Z,8.80
2022-10-11T08:42:36.251Z,9.60
2022-10-11T08:45:20.859Z,5.70
2022-10-11T08:48:04.147Z,13.10
2022-10-11T08:50:39.673Z,6.30
2022-10-11T08:53:28.764Z,9.60
2022-10-11T08:56:05.709Z,10.80
2022-10-11T08:58:50.673Z,7.10
2022-10-11T09:01:28.212Z,6.30
2022-10-11T09:04:03.831Z,6.70
2022-10-11T09:06:52.188Z,4.90
2022-10-11T09:09:49.120Z,8.80
2022-10-11T09:12:41.401Z,6.80
2022-10-11T09:15:32.144Z,5.60
2022-10-11T09:19:06.847Z,9.50
2022-10-11T09:21:53.105Z,7.80
2022-10-11T09:24:53.928Z,5.40
2022-10-11T09:28:01.334Z,4.90
2022-10-11T09:30:32.556Z,8.90
2022-10-11T09:33:22.438Z,6.60
2022-10-11T09:36:00.239Z,7.50
2022-10-11T09:38:47.244Z,7.60
2022-10-11T09:41:28.261Z,5.40
2022-10-11T09:44:03.849Z,7.10
2022-10-11T09:46:43.625Z,4.70
2022-10-11T09:49:23.177Z,6.40
2022-10-11T09:52:04.280Z,6.80
2022-10-11T09:54:47.706Z,4.90
2022-10-11T09:57:33.065Z,6.50
2022-10-11T10:00:22.616Z,8.40
2022-10-11T10:03:01.671Z,4.30
2022-10-11T10:05:38.761Z,6.90
2022-10-11T10:08:27.938Z,6.40
2022-10-11T10:11:09.036Z,6.20
2022-10-11T10:13:50.677Z,5.00
2022-10-11T10:16:29.608Z,6.70
2022-10-11T10:19:07.395Z,5.10
2022-10-11T10:21:49.973Z,6.20
2022-10-11T10:24:38.273Z,6.90
2022-10-11T10:27:27.470Z,3.60
2022-10-11T10:30:17.126Z,10.30
2022-10-11T10:33:01.211Z,3.20
2022-10-11T10:35:42.913Z,4.50
2022-10-11T10:38:26.714Z,5.60
2022-10-11T10:41:05.324Z,5.80
2022-10-11T10:43:44.590Z,6.00
2022-10-11T10:46:39.074Z,5.70
2022-10-11T10:49:48.773Z,7.30
2022-10-11T10:53:02.967Z,5.70
2022-10-11T10:55:44.453Z,4.40
2022-10-11T10:58:45.220Z,4.60
2022-10-11T11:01:28.851Z,3.20
2022-10-11T11:04:18.159Z,6.00
2022-10-11T11:06:59.341Z,4.70
2022-10-11T11:09:49.696Z,5.40
2022-10-11T11:12:42.649Z,3.20
2022-10-11T11:15:32.561Z,6.50
2022-10-11T11:18:29.458Z,5.00
2022-10-11T11:21:28.163Z,3.60
2022-10-11T11:24:18.000Z,5.00
2022-10-11T11:27:04.895Z,4.30
2022-10-11T11:29:57.045Z,7.30
2022-10-11T11:32:46.077Z,6.80
2022-10-11T11:35:30.637Z,5.50
2022-10-11T11:38:12.700Z,3.40
2022-10-11T11:40:54.092Z,5.10
2022-10-11T11:43:34.306Z,8.30
2022-10-11T11:46:42.770Z,5.40
2022-10-11T11:49:26.476Z,6.10
2022-10-11T11:52:02.220Z,4.00
2022-10-11T11:54:54.617Z,4.70
2022-10-11T11:57:52.790Z,5.90
2022-10-11T12:00:34.989Z,3.80
2022-10-11T12:03:26.966Z,5.20
2022-10-11T12:06:27.567Z,5.50
2022-10-11T12:09:09.226Z,5.10
2022-10-11T12:11:58.720Z,5.30
2022-10-11T12:14:42.704Z,3.40
2022-10-11T12:17:24.553Z,6.00
2022-10-11T12:20:26.454Z,4.50
2022-10-11T12:23:03.251Z,3.70
2022-10-11T12:25:47.188Z,5.90
2022-10-11T12:29:06.806Z,6.10
2022-10-11T12:31:45.987Z,4.40
2022-10-11T12:34:42.462Z,7.60
2022-10-11T12:38:04.079Z,6.90
2022-10-11T12:40:43.469Z,4.10
2022-10-11T12:44:00.786Z,4.40
2022-10-11T12:47:25.643Z,5.80
2022-10-11T12:50:19.686Z,4.50
2022-10-11T12:53:05.558Z,4.70
2022-10-11T12:55:54.004Z,3.00
2022-10-11T12:58:39.222Z,6.30
2022-10-11T13:01:31.967Z,4.30
2022-10-11T13:04:12.804Z,4.60
2022-10-11T13:06:54.801Z,4.00
2022-10-11T13:09:39.244Z,5.20
2022-10-11T13:12:19.359Z,6.70
2022-10-11T13:15:08.914Z,4.20
2022-10-11T13:17:44.915Z,5.70
2022-10-11T13:20:25.961Z,10.10
2022-10-11T13:23:01.322Z,9.20
2022-10-11T13:25:41.812Z,12.60
2022-10-11T13:28:38.568Z,4.90
2022-10-11T13:31:14.083Z,5.00
2022-10-11T13:33:50.111Z,4.40
2022-10-11T13:36:26.879Z,5.60
2022-10-11T13:39:03.072Z,9.00
2022-10-11T13:41:37.499Z,6.10
2022-10-11T13:44:13.976Z,4.90
2022-10-11T13:46:48.699Z,5.10
2022-10-11T13:49:40.062Z,5.50
2022-10-11T13:52:26.975Z,7.70
2022-10-11T13:55:22.074Z,14.30
2022-10-11T13:57:58.333Z,5.60
2022-10-11T14:00:38.724Z,3.80
2022-10-11T14:03:24.835Z,5.20
2022-10-11T14:06:04.189Z,6.80
2022-10-11T14:08:45.427Z,4.10
2022-10-11T14:11:42.514Z,6.20
2022-10-11T14:14:52.856Z,4.80
2022-10-11T14:17:56.044Z,4.80
2022-10-11T14:20:38.792Z,4.90
2022-10-11T14:23:14.359Z,4.10
2022-10-11T14:25:53.493Z,4.50
2022-10-11T14:28:28.340Z,6.90
2022-10-11T14:31:03.834Z,5.60
2022-10-11T14:33:39.894Z,6.40
2022-10-11T14:36:14.674Z,6.60
2022-10-11T14:38:51.967Z,4.50
2022-10-11T14:41:26.156Z,8.50
2022-10-11T14:44:00.294Z,4.10
2022-10-11T14:46:37.778Z,6.60
2022-10-11T14:49:19.318Z,5.50
2022-10-11T14:51:57.065Z,7.70
2022-10-11T14:54:33.736Z,7.60
2022-10-11T14:57:14.036Z,4.00
2022-10-11T14:59:48.149Z,5.40
2022-10-11T15:02:22.052Z,5.80
2022-10-11T15:04:55.982Z,6.50
2022-10-11T15:07:30.039Z,6.40
2022-10-11T15:10:04.843Z,6.10
2022-10-11T15:12:39.315Z,4.70
2022-10-11T15:15:19.780Z,5.50
2022-10-11T15:17:58.318Z,6.70
2022-10-11T15:20:38.250Z,6.50
2022-10-11T15:23:13.806Z,5.70
2022-10-11T15:25:47.846Z,4.60
2022-10-11T15:28:28.697Z,6.60
2022-10-11T15:31:05.661Z,6.00
2022-10-11T15:33:40.410Z,5.80
2022-10-11T15:36:19.538Z,5.30
2022-10-11T15:38:53.961Z,6.00
2022-10-11T15:41:27.924Z,6.50
2022-10-11T15:44:02.304Z,7.70
2022-10-11T15:46:36.108Z,7.40
2022-10-11T15:49:16.239Z,4.40
2022-10-11T15:51:50.318Z,5.20
2022-10-11T15:54:24.153Z,6.40
2022-10-11T15:56:58.982Z,6.40
2022-10-11T15:59:33.216Z,4.00
2022-10-11T16:02:07.032Z,4.90
2022-10-11T16:04:41.240Z,4.80
2022-10-11T16:07:14.921Z,8.20
2022-10-11T16:09:48.948Z,7.30
2022-10-11T16:12:23.250Z,5.10
2022-10-11T16:14:57.292Z,9.30
2022-10-11T16:17:31.012Z,6.20
2022-10-11T16:20:06.999Z,7.70
2022-10-11T16:22:41.793Z,4.70
2022-10-11T16:25:16.083Z,5.00
2022-10-11T16:27:50.311Z,4.50
2022-10-11T16:30:24.589Z,7.70
2022-10-11T16:32:58.919Z,5.10
2022-10-11T16:35:35.338Z,4.90
2022-10-11T16:38:09.294Z,5.20
2022-10-11T16:40:44.283Z,6.40
2022-10-11T16:43:18.093Z,5.50
2022-10-11T16:45:57.685Z,5.90
2022-10-11T16:48:33.557Z,9.80
2022-10-11T16:51:13.853Z,10.60
2022-10-11T16:53:47.577Z,11.90
2022-10-11T16:56:22.814Z,9.90
2022-10-11T16:58:57.271Z,11.20
2022-10-11T17:01:31.499Z,9.20
2022-10-11T17:04:07.167Z,7.70
2022-10-11T17:06:43.924Z,7.90
2022-10-11T17:09:17.780Z,6.40
2022-10-11T17:11:51.742Z,7.30
2022-10-11T17:14:25.400Z,8.20
2022-10-11T17:16:59.112Z,11.20
2022-10-11T17:19:33.563Z,9.90
2022-10-11T17:22:07.374Z,9.30
2022-10-11T17:24:41.528Z,5.80
2022-10-11T17:27:15.452Z,9.80
2022-10-11T17:29:49.240Z,11.90
2022-10-11T17:32:23.111Z,6.70
2022-10-11T17:34:59.219Z,5.90
2022-10-11T17:37:33.591Z,9.20
2022-10-11T17:40:08.400Z,7.60
2022-10-11T17:42:42.111Z,9.60
2022-10-11T17:45:16.455Z,7.90
2022-10-11T17:47:50.243Z,6.30
2022-10-11T17:50:24.149Z,9.60
2022-10-11T17:52:58.096Z,7.70
2022-10-11T17:55:32.159Z,5.00
2022-10-11T17:58:06.481Z,6.20
2022-10-11T18:00:41.170Z,7.80
2022-10-11T18:03:14.829Z,7.40
2022-10-11T18:05:48.585Z,7.30
2022-10-11T18:08:22.993Z,10.70
2022-10-11T18:10:57.032Z,13.90
2022-10-11T18:13:31.075Z,18.60
2022-10-11T18:16:06.073Z,20.20
2022-10-11T18:18:41.386Z,20.20
2022-10-11T18:21:16.188Z,22.40
2022-10-11T18:23:50.427Z,23.20
2022-10-11T18:26:30.251Z,19.10
2022-10-11T18:29:05.406Z,19.20
2022-10-11T18:31:40.235Z,26.00
2022-10-11T18:34:16.378Z,22.50
2022-10-11T18:36:50.509Z,21.70
2022-10-11T18:39:24.648Z,20.60
2022-10-11T18:41:59.908Z,22.80
2022-10-11T18:44:34.471Z,17.80
2022-10-11T18:47:09.081Z,15.00
2022-10-11T18:49:43.049Z,16.50
2022-10-11T18:52:17.269Z,13.90
2022-10-11T18:54:51.393Z,14.30
2022-10-11T18:57:25.501Z,11.70
2022-10-11T19:00:07.340Z,10.60
2022-10-11T19:02:46.141Z,13.10
2022-10-11T19:05:20.605Z,14.10
2022-10-11T19:07:55.410Z,14.70
2022-10-11T19:10:29.672Z,16.40
2022-10-11T19:13:03.877Z,15.90
2022-10-11T19:15:41.528Z,19.20
2022-10-11T19:18:20.351Z,21.20
2022-10-11T19:20:55.473Z,20.00
2022-10-11T19:23:32.599Z,25.60
2022-10-11T19:26:07.818Z,29.00
2022-10-11T19:28:43.696Z,26.40
2022-10-11T19:31:19.946Z,22.20
2022-10-11T19:33:54.610Z,14.50
2022-10-11T19:36:34.001Z,12.20
2022-10-11T19:39:12.268Z,12.30
2022-10-11T19:41:47.466Z,12.50
2022-10-11T19:44:22.364Z,14.50
2022-10-11T19:46:58.321Z,13.90
2022-10-11T19:49:35.036Z,14.70
2022-10-11T19:52:09.686Z,12.40
2022-10-11T19:54:43.662Z,14.30
2022-10-11T19:57:17.758Z,12.90
2022-10-11T19:59:52.169Z,13.90
2022-10-11T20:02:26.291Z,18.50
2022-10-11T20:05:00.368Z,17.00
2022-10-11T20:07:34.374Z,18.10
2022-10-11T20:10:09.398Z,21.90
2022-10-11T20:12:45.898Z,23.80
2022-10-11T20:15:20.546Z,26.60
2022-10-11T20:17:57.643Z,20.90
2022-10-11T20:20:32.087Z,18.60
2022-10-11T20:23:06.253Z,15.70
2022-10-11T20:25:40.593Z,18.70
2022-10-11T20:28:14.885Z,17.80
2022-10-11T20:30:49.208Z,18.50
2022-10-11T20:33:23.548Z,24.00
2022-10-11T20:36:06.333Z,18.70
2022-10-11T20:38:43.895Z,19.80
2022-10-11T20:41:20.884Z,20.60
2022-10-11T20:43:58.029Z,20.30
2022-10-11T20:46:35.762Z,19.50
2022-10-11T20:49:12.595Z,19.00
2022-10-11T20:51:46.989Z,16.70
2022-10-11T20:54:20.955Z,16.00
2022-10-11T20:56:54.910Z,19.40
2022-10-11T20:59:29.084Z,19.70
2022-10-11T21:02:03.018Z,17.30
2022-10-11T21:04:38.474Z,18.10
2022-10-11T21:07:13.465Z,16.00
2022-10-11T21:09:47.398Z,15.40
2022-10-11T21:12:21.701Z,18.80
2022-10-11T21:14:57.893Z,19.30
2022-10-11T21:17:32.095Z,21.80
2022-10-11T21:20:07.236Z,21.10
2022-10-11T21:22:41.468Z,18.50
2022-10-11T21:25:15.274Z,20.50
2022-10-11T21:27:49.186Z,23.40
2022-10-11T21:30:24.373Z,21.50
2022-10-11T21:32:58.437Z,24.40
2022-10-11T21:35:33.619Z,23.80
2022-10-11T21:38:07.229Z,22.40
2022-10-11T21:40:43.955Z,21.40
2022-10-11T21:43:17.651Z,22.50
2022-10-11T21:45:51.607Z,25.20
2022-10-11T21:48:25.139Z,28.60
2022-10-11T21:50:59.335Z,26.30
2022-10-11T21:53:33.137Z,27.90
2022-10-11T21:56:07.428Z,32.30
2022-10-11T21:58:41.336Z,33.60
2022-10-11T22:01:16.836Z,31.10
2022-10-11T22:03:51.919Z,45.70
2022-10-11T22:06:25.971Z,46.90
2022-10-11T22:09:00.621Z,55.10
2022-10-11T22:11:34.684Z,54.90
2022-10-11T22:14:08.807Z,58.40
2022-10-11T22:16:43.146Z,52.70
2022-10-11T22:19:16.787Z,50.30
2022-10-11T22:21:50.518Z,50.80
2022-10-11T22:24:24.337Z,50.40
2022-10-11T22:26:58.030Z,44.40
2022-10-11T22:29:34.404Z,39.10
2022-10-11T22:32:09.216Z,36.50
2022-10-11T22:34:43.074Z,32.50
2022-10-11T22:37:16.876Z,34.00
2022-10-11T22:39:50.923Z,31.10
2022-10-11T22:42:27.605Z,43.60
2022-10-11T22:45:01.877Z,37.50
2022-10-11T22:47:35.758Z,37.90
2022-10-11T22:50:11.107Z,34.90
2022-10-11T22:52:45.106Z,33.90
2022-10-11T22:55:20.316Z,32.30
2022-10-11T22:57:54.359Z,23.20
2022-10-11T23:00:28.482Z,28.00
2022-10-11T23:03:02.691Z,27.40
2022-10-11T23:05:36.849Z,26.00
2022-10-11T23:08:11.808Z,26.20
2022-10-11T23:10:45.575Z,28.70
2022-10-11T23:13:19.722Z,29.20
2022-10-11T23:15:53.730Z,33.40
2022-10-11T23:18:27.700Z,38.40
2022-10-11T23:21:05.391Z,28.70
2022-10-11T23:23:40.818Z,28.80
2022-10-11T23:26:18.163Z,26.80
2022-10-11T23:28:56.225Z,29.50
2022-10-11T23:31:30.160Z,27.10
2022-10-11T23:34:04.769Z,26.40
2022-10-11T23:36:38.551Z,26.60
2022-10-11T23:39:16.093Z,30.30
2022-10-11T23:41:49.961Z,25.40
2022-10-11T23:44:23.695Z,25.90
2022-10-11T23:46:57.433Z,22.20
2022-10-11T23:49:31.532Z,24.60
2022-10-11T23:52:05.658Z,22.10
2022-10-11T23:54:39.565Z,29.50
2022-10-11T23:57:13.146Z,27.20
2022-10-11T23:59:47.090Z,25.10
